Flugplatz Ingelfingen-Bühlhof

Für EDGI sind keine METAR/TAF Berichte vorhanden.
Es werden die Flugwettermeldungen vom Flugplatz Niederstetten Airport in 22 km Entfernung angezeigt.

Bericht für ETHN

vom 28.01. um 16:35 UTC

Wind 27 kt aus 250° in Böen 42 kt

Sichtweite 8000 m

gering bewölkt in 500 ft

aufgelockert bewölkt in 1000 ft

aufgebrochene Bewölkung in 3000 ft

Temperatur 1.0°C

Taupunkt 0.0°C

Luftfeuchtigkeit 93%

Luftdruck 1001 hPa

ETHN 281635Z 25027G42KT 8000 FEW005 SCT010CB BKN030 01/M00 Q1001 RESHSN BLU BLU TEMPO YLO

Prognose für ETHN

vom 28.01. um 00:00 UTC

Zwischen 00:00 UTC und 00:00 UTC

Wind 12 kt aus 250° in Böen 25 kt

Sichtweite 10 km oder mehr

keine signifikanten Wettererscheinungen

aufgelockert bewölkt in 1500 ft

aufgebrochene Bewölkung in 3000 ft


Zwischen 00:00 UTC und 00:00 UTC mit einer Wahrscheinlichkeit von 30%

Wind 20 kt aus 260° in Böen 45 kt

Sichtweite 1000 m

Code: TSGS

aufgelockert bewölkt in 500 ft

aufgebrochene Bewölkung in 800 ft


Zwischen 00:00 UTC und 00:00 UTC zeitweise

Wind 20 kt aus 260° in Böen 40 kt

Sichtweite 3000 m

Schneeschauer

aufgebrochene Bewölkung in 1200 ft

TAF ETHN 281417Z 2815/2824 25012G25KT 9999 NSW SCT015 BKN030 TEMPO 2815/2821 26020G40KT 3000 SHSN BKN012CB PROB30 2815/2818 26020G45KT 1000 TSGS SCT005 BKN008CB
Impressum